• Join FlightAware (Why Join?)
  • Login
  • US Flag 
11:47AM EDT


 

Airport Tracker/Info


-or-


 

Live Flight TrackerFlight Track Log ✈ ASQ5678 ✈ 22-Aug-2013 ✈ KIAH - KLFT

Flight Track Log - Related Links

Times and Time Zones

All times are in EDT time to prevent confusion due to time zone crossing. See the ASQ5678 flight status page for this flight to view local times or setup timezone preferences in your user account.

Time Position Orientation Groundspeed Altitude Reporting Facility
EDT Latitude Longitude Course Direction KTS MPH feet Rate Location/Type
02:00PM 29.9617 -95.3436 107° East 162 186 800  Level Houston Center
02:01PM 29.9422 -95.2689 107° East 232 267 2,600 1,620 Climbing Houston Center
02:02PM 29.9358 -95.2306 101° East 236 272 3,800 840 Climbing Houston Center
02:03PM 29.9275 -95.1472 97° East 257 296 4,000 540 Climbing Houston Center
02:04PM 29.9283 -95.0664 89° East 255 293 5,000 1,800 Climbing Houston Center
02:05PM 29.9350 -94.9842 85° East 256 295 7,800 2,100 Climbing Houston Center
02:06PM 29.9422 -94.9061 84° East 246 283 9,400 2,280 Climbing Houston Center
02:07PM 29.9519 -94.8028 84° East 265 305 12,600 1,860 Climbing Houston Center
02:08PM 29.9606 -94.7114 84° East 280 322 13,300 780 Climbing Houston Center
02:09PM 29.9703 -94.6014 84° East 334 384 14,300 1,080 Climbing Houston Center
02:10PM 29.9811 -94.4878 84° East 350 403 15,600 1,320 Climbing Houston Center
02:11PM 29.9914 -94.3533 85° East 361 415 17,100 1,140 Climbing Houston Center
02:12PM 30.0036 -94.2378 83° East 364 419 18,000 1,140 Climbing Houston Center
02:13PM 30.0197 -94.1192 81° East 372 428 19,500 1,380 Climbing Houston Center
02:14PM 30.0336 -94.0019 82° East 371 427 20,900 720 Climbing Houston Center
02:15PM 30.0492 -93.8800 82° East 379 436 21,000  Climbing Houston Center
02:16PM 30.0650 -93.7456 82° East 417 480 21,000  Level Houston Center
02:17PM 30.0850 -93.5817 82° East 433 498 21,000  Level Houston Center
02:18PM 30.0914 -93.4417 87° East 444 511 21,000  Level Houston Center
02:19PM 30.0961 -93.3019 88° East 443 510 21,000  Level Houston Center
02:20PM 30.1000 -93.1631 88° East 439 505 21,000 -300 Level Houston Center
02:21PM 30.1042 -92.9997 88° East 431 496 20,500 -1,560 Descending Houston Center
02:22PM 30.1086 -92.8647 88° East 425 489 17,800 -2,640 Descending Houston Center
02:23PM 30.1114 -92.7394 89° East 404 465 15,100 -2,640 Descending Houston Center
02:24PM 30.1106 -92.6178 90° East 388 447 12,400 -2,700 Descending Houston Center
02:25PM 30.0914 -92.5069 101° East 361 415 9,500 -2,100 Descending Houston Center
02:27PM 30.0778 -92.4067 99° East 300 345 8,100 -2,220 Descending Houston Center
02:28PM 30.0711 -92.3328 96° East 254 292 5,000 -2,700 Descending Houston Center
02:29PM 30.0867 -92.2572 77° East 242 278 2,600 -1,380 Descending Houston Center
02:30PM 30.1006 -92.1844 78° East 240 276 2,200 -420 Descending Houston Center